Time;durP1;ratioP1;P1;durP2;ratioP2;P2;SDS_P1;SDS_P2;PMS_P1;PMS_P2;Temp;Humidity;BMP_temperature;BMP_pressure;BME280_temperature;BME280_humidity;BME280_pressure;Samples;Min_cycle;Max_cycle;Signal;HPM_P1;HPM_P2
2022/07/29 00:00:40;;;;;;;;;;;;;;;;;;6248157;23;20002;-82
2022/07/29 00:03:06;;;;;;;;;;;;;;;;;;6247741;23;19916;-82
2022/07/29 00:05:31;;;;;;;;;;;;;;;;;;6248634;23;20362;-82
2022/07/29 00:07:56;;;;;;;;;;;;;;;;;;6248740;23;19918;-82
2022/07/29 00:10:22;;;;;;;;;;;;;;;;;;6226394;23;19918;-83
2022/07/29 00:12:47;;;;;;;;;;;;;;;;;;6221217;23;19912;-83
2022/07/29 00:15:13;;;;;;;;;;;;;;;;;;6252674;23;19959;-86
2022/07/29 00:17:39;;;;;;;;;;;;;;;;;;6259025;23;20240;-82
2022/07/29 00:20:05;;;;;;;;;;;;;;;;;;6221959;23;19915;-82
2022/07/29 00:22:30;;;;;;;;;;;;;;;;;;6250810;23;19919;-83
2022/07/29 00:24:55;;;;;;;;;;;;;;;;;;6247540;23;19911;-82
2022/07/29 00:27:21;;;;;;;;;;;;;;;;;;6247527;23;19911;-82
2022/07/29 00:29:47;;;;;;;;;;;;;;;;;;6247495;23;20263;-82
2022/07/29 00:32:12;;;;;;;;;;;;;;;;;;6247910;23;19912;-82
2022/07/29 00:37:22;;;;;;;;;;;;;;;;;;6246310;23;19918;-83
2022/07/29 00:39:47;;;;;;;;;;;;;;;;;;6246791;23;19911;-82
2022/07/29 00:42:12;;;;;;;;;;;;;;;;;;6248062;23;19911;-83
2022/07/29 00:44:39;;;;;;;;;;;;;;;;;;6247958;23;19912;-84
2022/07/29 00:47:04;;;;;;;;;;;;;;;;;;6247943;23;19911;-83
2022/07/29 00:49:30;;;;;;;;;;;;;;;;;;6220899;23;19916;-83
2022/07/29 00:51:55;;;;;;;;;;;;;;;;;;6224976;23;19915;-82
2022/07/29 00:54:22;;;;;;;;;;;;;;;;;;6248371;23;19919;-83
2022/07/29 00:56:47;;;;;;;;;;;;;;;;;;6247904;23;19912;-83
2022/07/29 00:59:14;;;;;;;;;;;;;;;;;;6248244;23;19916;-83
2022/07/29 01:01:39;;;;;;;;;;;;;;;;;;6248254;23;19957;-82
2022/07/29 01:04:06;;;;;;;;;;;;;;;;;;6221577;23;19943;-83
2022/07/29 01:06:31;;;;;;;;;;;;;;;;;;6247925;23;20246;-82
2022/07/29 01:08:57;;;;;;;;;;;;;;;;;;6248276;23;19947;-83
2022/07/29 01:11:23;;;;;;;;;;;;;;;;;;6247935;23;19918;-83
2022/07/29 01:13:49;;;;;;;;;;;;;;;;;;6247607;23;19912;-83
2022/07/29 01:16:34;;;;;;;;;;;;;;;;;;6220941;23;19911;-83
2022/07/29 01:19:06;;;;;;;;;;;;;;;;;;6246421;23;20348;-83
2022/07/29 01:21:49;;;;;;;;;;;;;;;;;;6247652;23;20328;-82
2022/07/29 01:24:24;;;;;;;;;;;;;;;;;;6221067;23;19907;-84
2022/07/29 01:27:12;;;;;;;;;;;;;;;;;;6221318;23;19998;-83
2022/07/29 01:29:38;;;;;;;;;;;;;;;;;;6177723;23;19918;-82
2022/07/29 01:32:05;;;;;;;;;;;;;;;;;;6248275;23;19911;-82
2022/07/29 01:34:34;;;;;;;;;;;;;;;;;;6248583;23;19916;-83
2022/07/29 01:37:19;;;;;;;;;;;;;;;;;;6248595;23;19912;-82
2022/07/29 01:39:46;;;;;;;;;;;;;;;;;;6248830;23;20355;-82
2022/07/29 01:42:50;;;;;;;;;;;;;;;;;;6248257;23;20010;-83
2022/07/29 01:45:16;;;;;;;;;;;;;;;;;;6096850;23;19913;-82
2022/07/29 01:47:49;;;;;;;;;;;;;;;;;;6097197;23;19942;-83
2022/07/29 01:50:17;;;;;;;;;;;;;;;;;;6096846;23;20000;-83
2022/07/29 01:52:46;;;;;;;;;;;;;;;;;;6096711;23;19925;-84
2022/07/29 01:55:14;;;;;;;;;;;;;;;;;;6096935;23;19913;-83
2022/07/29 01:57:41;;;;;;;;;;;;;;;;;;6096867;23;19917;-84
2022/07/29 02:00:07;;;;;;;;;;;;;;;;;;6096931;23;19913;-83
2022/07/29 02:02:33;;;;;;;;;;;;;;;;;;6096497;23;19940;-82
2022/07/29 02:05:00;;;;;;;;;;;;;;;;;;6097164;23;19913;-83
2022/07/29 02:07:28;;;;;;;;;;;;;;;;;;6097876;23;19913;-83
2022/07/29 02:09:54;;;;;;;;;;;;;;;;;;6098609;23;20412;-84
2022/07/29 02:12:20;;;;;;;;;;;;;;;;;;6076326;23;20005;-83
2022/07/29 02:14:49;;;;;;;;;;;;;;;;;;6098135;23;20238;-83
2022/07/29 02:17:18;;;;;;;;;;;;;;;;;;6221383;23;19919;-84
2022/07/29 02:19:44;;;;;;;;;;;;;;;;;;6249703;23;19915;-82
2022/07/29 02:22:10;;;;;;;;;;;;;;;;;;6249622;23;19912;-82
2022/07/29 02:24:37;;;;;;;;;;;;;;;;;;6249186;23;20382;-83
2022/07/29 02:27:03;;;;;;;;;;;;;;;;;;6249824;23;19911;-83
2022/07/29 02:29:30;;;;;;;;;;;;;;;;;;6249607;23;20283;-82
2022/07/29 02:31:57;;;;;;;;;;;;;;;;;;6197757;23;19986;-83
2022/07/29 02:34:23;;;;;;;;;;;;;;;;;;6222638;23;20271;-83
2022/07/29 02:36:49;;;;;;;;;;;;;;;;;;6222700;23;19943;-83
2022/07/29 02:39:15;;;;;;;;;;;;;;;;;;6249400;23;19912;-83
2022/07/29 02:41:43;;;;;;;;;;;;;;;;;;6249639;23;20391;-83
2022/07/29 02:44:16;;;;;;;;;;;;;;;;;;6249256;23;19919;-83
2022/07/29 02:47:08;;;;;;;;;;;;;;;;;;6249238;23;20329;-84
2022/07/29 02:49:38;;;;;;;;;;;;;;;;;;6191276;23;19919;-83
2022/07/29 02:52:06;;;;;;;;;;;;;;;;;;6249484;23;19919;-83
2022/07/29 02:54:44;;;;;;;;;;;;;;;;;;6249262;23;19986;-83
2022/07/29 02:57:18;;;;;;;;;;;;;;;;;;6249596;23;19918;-83
2022/07/29 02:59:45;;;;;;;;;;;;;;;;;;6249637;23;19953;-82
2022/07/29 03:02:12;;;;;;;;;;;;;;;;;;6249761;23;19951;-88
2022/07/29 03:04:39;;;;;;;;;;;;;;;;;;6249345;23;20381;-83
2022/07/29 03:07:05;;;;;;;;;;;;;;;;;;6249770;23;19912;-82
2022/07/29 03:09:31;;;;;;;;;;;;;;;;;;6249439;23;19922;-84
2022/07/29 03:11:57;;;;;;;;;;;;;;;;;;6249503;23;19918;-84
2022/07/29 03:14:23;;;;;;;;;;;;;;;;;;6249162;23;19946;-83
2022/07/29 03:16:49;;;;;;;;;;;;;;;;;;6249493;23;19912;-83
2022/07/29 03:19:15;;;;;;;;;;;;;;;;;;6222334;23;20213;-83
2022/07/29 03:21:40;;;;;;;;;;;;;;;;;;6222542;23;20018;-83
2022/07/29 03:24:06;;;;;;;;;;;;;;;;;;6249870;23;19915;-83
2022/07/29 03:26:31;;;;;;;;;;;;;;;;;;6249852;23;19911;-83
2022/07/29 03:28:57;;;;;;;;;;;;;;;;;;6250244;23;19912;-86
2022/07/29 03:31:22;;;;;;;;;;;;;;;;;;6250522;23;19999;-82
2022/07/29 03:33:48;;;;;;;;;;;;;;;;;;6260981;23;19915;-83
2022/07/29 03:36:14;;;;;;;;;;;;;;;;;;6245844;23;19960;-83
2022/07/29 03:38:41;;;;;;;;;;;;;;;;;;6267780;23;19911;-83
2022/07/29 03:41:08;;;;;;;;;;;;;;;;;;6255943;23;19927;-84
2022/07/29 03:43:35;;;;;;;;;;;;;;;;;;6253312;23;19912;-83
2022/07/29 03:46:01;;;;;;;;;;;;;;;;;;6250241;23;19911;-83
2022/07/29 03:48:29;;;;;;;;;;;;;;;;;;6249451;23;20327;-82
2022/07/29 03:50:55;;;;;;;;;;;;;;;;;;6248929;23;19912;-83
2022/07/29 03:53:20;;;;;;;;;;;;;;;;;;6248839;23;19990;-84
2022/07/29 03:55:48;;;;;;;;;;;;;;;;;;6248738;23;19912;-83
2022/07/29 03:58:14;;;;;;;;;;;;;;;;;;6248390;23;20224;-83
2022/07/29 04:00:40;;;;;;;;;;;;;;;;;;6249137;23;19957;-83
2022/07/29 04:03:06;;;;;;;;;;;;;;;;;;6248197;23;19939;-83
2022/07/29 04:05:31;;;;;;;;;;;;;;;;;;6248489;23;20311;-83
2022/07/29 04:07:56;;;;;;;;;;;;;;;;;;6248135;23;19912;-82
2022/07/29 04:10:25;;;;;;;;;;;;;;;;;;6248598;23;19918;-83
2022/07/29 04:12:50;;;;;;;;;;;;;;;;;;6221422;23;19922;-83
2022/07/29 04:15:16;;;;;;;;;;;;;;;;;;6248489;23;19942;-83
2022/07/29 04:17:41;;;;;;;;;;;;;;;;;;6247956;23;19918;-85
2022/07/29 04:20:07;;;;;;;;;;;;;;;;;;6248474;23;19912;-83
2022/07/29 04:22:32;;;;;;;;;;;;;;;;;;6248871;23;19919;-83
2022/07/29 04:24:59;;;;;;;;;;;;;;;;;;6248873;23;19911;-83
2022/07/29 04:27:24;;;;;;;;;;;;;;;;;;6248032;23;19911;-83
2022/07/29 04:29:50;;;;;;;;;;;;;;;;;;6249605;23;19921;-84
2022/07/29 04:32:15;;;;;;;;;;;;;;;;;;6220554;23;19911;-84
2022/07/29 04:34:41;;;;;;;;;;;;;;;;;;6248351;23;19923;-84
2022/07/29 04:37:06;;;;;;;;;;;;;;;;;;6248042;23;19962;-84
2022/07/29 04:39:31;;;;;;;;;;;;;;;;;;6248331;23;19911;-85
2022/07/29 04:41:57;;;;;;;;;;;;;;;;;;6248642;23;19994;-83
2022/07/29 04:44:22;;;;;;;;;;;;;;;;;;6248168;23;19911;-83
2022/07/29 04:46:48;;;;;;;;;;;;;;;;;;6247603;23;19915;-84
2022/07/29 04:49:13;;;;;;;;;;;;;;;;;;6223553;23;19955;-84
2022/07/29 04:51:39;;;;;;;;;;;;;;;;;;6248249;23;19990;-84
2022/07/29 04:54:04;;;;;;;;;;;;;;;;;;6247293;23;19907;-84
2022/07/29 04:56:29;;;;;;;;;;;;;;;;;;6248200;23;19915;-84
2022/07/29 04:58:55;;;;;;;;;;;;;;;;;;6249356;23;19935;-84
2022/07/29 05:01:21;;;;;;;;;;;;;;;;;;6254611;23;19919;-89
2022/07/29 05:03:52;;;;;;;;;;;;;;;;;;6226232;23;19922;-85
2022/07/29 05:06:17;;;;;;;;;;;;;;;;;;6247999;23;19908;-84
2022/07/29 05:08:43;;;;;;;;;;;;;;;;;;6248665;23;19912;-85
2022/07/29 05:11:08;;;;;;;;;;;;;;;;;;6250854;23;20312;-85
2022/07/29 05:13:33;;;;;;;;;;;;;;;;;;6252556;23;19918;-84
2022/07/29 05:15:59;;;;;;;;;;;;;;;;;;6254119;23;20283;-84
2022/07/29 05:18:25;;;;;;;;;;;;;;;;;;6255039;23;19938;-85
2022/07/29 05:20:50;;;;;;;;;;;;;;;;;;6250336;23;20260;-83
2022/07/29 05:23:16;;;;;;;;;;;;;;;;;;6221531;23;20312;-84
2022/07/29 05:25:41;;;;;;;;;;;;;;;;;;6248877;23;19965;-84
2022/07/29 05:28:07;;;;;;;;;;;;;;;;;;6248925;23;19918;-84
2022/07/29 05:30:32;;;;;;;;;;;;;;;;;;6248923;23;20346;-84
2022/07/29 05:32:57;;;;;;;;;;;;;;;;;;6248347;23;20320;-84
2022/07/29 05:35:23;;;;;;;;;;;;;;;;;;6222953;23;19911;-86
2022/07/29 05:37:48;;;;;;;;;;;;;;;;;;6221499;23;20303;-83
2022/07/29 05:40:14;;;;;;;;;;;;;;;;;;6248666;23;19911;-86
2022/07/29 05:42:39;;;;;;;;;;;;;;;;;;6251380;23;19942;-85
2022/07/29 05:45:05;;;;;;;;;;;;;;;;;;6250418;23;20323;-85
2022/07/29 05:47:31;;;;;;;;;;;;;;;;;;6249986;23;19915;-84
2022/07/29 05:49:56;;;;;;;;;;;;;;;;;;6250874;23;19912;-85
2022/07/29 05:52:22;;;;;;;;;;;;;;;;;;6223070;23;19920;-85
2022/07/29 05:54:47;;;;;;;;;;;;;;;;;;6251976;23;20315;-85
2022/07/29 05:57:16;;;;;;;;;;;;;;;;;;6252588;23;19911;-85
2022/07/29 05:59:42;;;;;;;;;;;;;;;;;;6251134;23;20243;-85
2022/07/29 06:02:07;;;;;;;;;;;;;;;;;;6222934;23;19915;-84
2022/07/29 06:04:33;;;;;;;;;;;;;;;;;;6252174;23;19917;-85
2022/07/29 06:06:58;;;;;;;;;;;;;;;;;;6252403;23;19918;-85
2022/07/29 06:09:24;;;;;;;;;;;;;;;;;;6251506;23;20280;-84
2022/07/29 06:11:50;;;;;;;;;;;;;;;;;;6250244;23;19935;-85
2022/07/29 06:14:17;;;;;;;;;;;;;;;;;;6251010;23;19918;-85
2022/07/29 06:16:42;;;;;;;;;;;;;;;;;;6222002;23;20338;-85
2022/07/29 06:19:08;;;;;;;;;;;;;;;;;;6250329;23;19962;-86
2022/07/29 06:21:33;;;;;;;;;;;;;;;;;;6249232;23;19915;-85
2022/07/29 06:23:59;;;;;;;;;;;;;;;;;;6249429;23;20348;-85
2022/07/29 06:26:24;;;;;;;;;;;;;;;;;;6248795;23;19912;-85
2022/07/29 06:28:51;;;;;;;;;;;;;;;;;;6250175;23;19916;-86
2022/07/29 06:31:17;;;;;;;;;;;;;;;;;;6222789;23;19911;-85
2022/07/29 06:33:42;;;;;;;;;;;;;;;;;;6250305;23;19966;-83
2022/07/29 06:36:08;;;;;;;;;;;;;;;;;;6250395;23;19915;-85
2022/07/29 06:38:33;;;;;;;;;;;;;;;;;;6250197;23;19966;-85
2022/07/29 06:41:07;;;;;;;;;;;;;;;;;;6250522;23;19957;-85
2022/07/29 06:43:35;;;;;;;;;;;;;;;;;;6249996;23;20316;-84
2022/07/29 06:46:02;;;;;;;;;;;;;;;;;;6250799;23;19991;-84
2022/07/29 06:48:28;;;;;;;;;;;;;;;;;;6250603;23;19912;-85
2022/07/29 06:50:54;;;;;;;;;;;;;;;;;;6250567;23;19981;-85
2022/07/29 06:53:20;;;;;;;;;;;;;;;;;;6250479;23;20391;-84
2022/07/29 06:55:45;;;;;;;;;;;;;;;;;;6250286;23;19946;-84
2022/07/29 06:58:10;;;;;;;;;;;;;;;;;;6250899;23;19916;-83
2022/07/29 07:00:36;;;;;;;;;;;;;;;;;;6254274;23;20332;-84
2022/07/29 07:03:03;;;;;;;;;;;;;;;;;;6251944;23;19917;-85
2022/07/29 07:05:29;;;;;;;;;;;;;;;;;;6249931;23;19922;-85
2022/07/29 07:07:54;;;;;;;;;;;;;;;;;;6248362;23;19911;-85
2022/07/29 07:10:19;;;;;;;;;;;;;;;;;;6250918;23;19935;-84
2022/07/29 07:12:45;;;;;;;;;;;;;;;;;;6249560;23;20346;-84
2022/07/29 07:15:10;;;;;;;;;;;;;;;;;;6225301;23;20294;-86
2022/07/29 07:17:37;;;;;;;;;;;;;;;;;;6222667;23;19912;-86
2022/07/29 07:20:04;;;;;;;;;;;;;;;;;;6244967;23;19947;-86
2022/07/29 07:22:31;;;;;;;;;;;;;;;;;;6245082;23;19912;-85
2022/07/29 07:24:56;;;;;;;;;;;;;;;;;;6245478;23;20316;-85
2022/07/29 07:27:22;;;;;;;;;;;;;;;;;;6245727;23;19926;-85
2022/07/29 07:29:49;;;;;;;;;;;;;;;;;;6219981;23;19950;-84
2022/07/29 07:32:16;;;;;;;;;;;;;;;;;;6249396;23;19957;-84
2022/07/29 07:34:42;;;;;;;;;;;;;;;;;;6249684;23;19923;-85
2022/07/29 07:37:08;;;;;;;;;;;;;;;;;;6248843;23;19911;-86
2022/07/29 07:39:33;;;;;;;;;;;;;;;;;;6248946;23;20316;-86
2022/07/29 07:41:59;;;;;;;;;;;;;;;;;;6249040;23;19918;-84
2022/07/29 07:44:24;;;;;;;;;;;;;;;;;;6255760;23;19912;-84
2022/07/29 07:46:49;;;;;;;;;;;;;;;;;;6227034;23;19923;-85
2022/07/29 07:49:15;;;;;;;;;;;;;;;;;;6254931;23;20327;-85
2022/07/29 07:51:45;;;;;;;;;;;;;;;;;;6223678;23;20389;-85
2022/07/29 07:54:13;;;;;;;;;;;;;;;;;;6251308;23;19919;-86
2022/07/29 07:56:39;;;;;;;;;;;;;;;;;;6251028;23;19912;-83
2022/07/29 07:59:04;;;;;;;;;;;;;;;;;;6252616;23;19918;-84
2022/07/29 08:01:30;;;;;;;;;;;;;;;;;;6253643;23;19923;-84
2022/07/29 08:03:55;;;;;;;;;;;;;;;;;;6250491;23;19918;-86
2022/07/29 08:06:20;;;;;;;;;;;;;;;;;;6251222;23;19938;-84
2022/07/29 08:08:46;;;;;;;;;;;;;;;;;;6250042;23;20220;-85
2022/07/29 08:11:11;;;;;;;;;;;;;;;;;;6250899;23;20311;-86
2022/07/29 08:13:42;;;;;;;;;;;;;;;;;;6248360;23;19919;-84
2022/07/29 08:16:12;;;;;;;;;;;;;;;;;;6248611;23;20312;-84
2022/07/29 08:18:39;;;;;;;;;;;;;;;;;;6248052;23;20343;-83
2022/07/29 08:21:04;;;;;;;;;;;;;;;;;;6255434;23;19977;-84
2022/07/29 08:23:39;;;;;;;;;;;;;;;;;;6248512;23;19911;-85
2022/07/29 08:26:10;;;;;;;;;;;;;;;;;;6248762;23;19965;-85
2022/07/29 08:28:39;;;;;;;;;;;;;;;;;;6249402;23;19918;-83
2022/07/29 08:31:04;;;;;;;;;;;;;;;;;;6254336;23;19911;-83
2022/07/29 08:33:30;;;;;;;;;;;;;;;;;;6223514;23;19918;-84
2022/07/29 08:35:55;;;;;;;;;;;;;;;;;;6228522;23;19912;-86
2022/07/29 08:38:21;;;;;;;;;;;;;;;;;;6250594;23;19947;-83
2022/07/29 08:40:46;;;;;;;;;;;;;;;;;;6224179;23;19911;-82
2022/07/29 08:43:12;;;;;;;;;;;;;;;;;;6252495;23;20304;-81
2022/07/29 08:45:44;;;;;;;;;;;;;;;;;;6248965;23;19926;-81
2022/07/29 08:48:09;;;;;;;;;;;;;;;;;;6249153;23;19943;-84
2022/07/29 08:50:35;;;;;;;;;;;;;;;;;;6249731;23;19912;-83
2022/07/29 08:53:01;;;;;;;;;;;;;;;;;;6222827;23;19919;-83
2022/07/29 08:55:27;;;;;;;;;;;;;;;;;;6222579;23;19912;-82
2022/07/29 08:57:52;;;;;;;;;;;;;;;;;;6221964;23;19911;-82
2022/07/29 09:00:18;;;;;;;;;;;;;;;;;;6221358;23;20125;-83
2022/07/29 09:02:45;;;;;;;;;;;;;;;;;;6221754;23;20339;-83
2022/07/29 09:05:10;;;;;;;;;;;;;;;;;;6249653;23;20355;-85
2022/07/29 09:07:36;;;;;;;;;;;;;;;;;;6250425;23;19912;-82
2022/07/29 09:10:01;;;;;;;;;;;;;;;;;;6224339;23;19918;-85
2022/07/29 09:12:28;;;;;;;;;;;;;;;;;;6248016;23;19919;-83
2022/07/29 09:14:54;;;;;;;;;;;;;;;;;;6248930;23;19943;-83
2022/07/29 09:17:38;;;;;;;;;;;;;;;;;;6252059;23;20239;-83
2022/07/29 09:20:11;;;;;;;;;;;;;;;;;;6226778;23;20373;-83
2022/07/29 09:22:36;;;;;;;;;;;;;;;;;;6252190;23;19919;-84
2022/07/29 09:25:02;;;;;;;;;;;;;;;;;;6249934;23;19911;-84
2022/07/29 09:27:28;;;;;;;;;;;;;;;;;;6250010;23;19918;-82
2022/07/29 09:30:03;;;;;;;;;;;;;;;;;;6251271;23;19911;-83
2022/07/29 09:32:29;;;;;;;;;;;;;;;;;;6250874;23;19916;-83
2022/07/29 09:35:13;;;;;;;;;;;;;;;;;;6249717;23;20374;-84
2022/07/29 09:37:38;;;;;;;;;;;;;;;;;;6250728;23;19926;-84
2022/07/29 09:40:25;;;;;;;;;;;;;;;;;;6249908;23;19955;-85
2022/07/29 09:42:51;;;;;;;;;;;;;;;;;;6224555;23;19986;-84
2022/07/29 09:45:30;;;;;;;;;;;;;;;;;;6197746;23;19915;-83
2022/07/29 09:47:58;;;;;;;;;;;;;;;;;;6222879;23;19912;-82
2022/07/29 09:50:34;;;;;;;;;;;;;;;;;;6248397;23;20013;-82
2022/07/29 09:52:59;;;;;;;;;;;;;;;;;;6222117;23;20354;-83
2022/07/29 09:55:25;;;;;;;;;;;;;;;;;;6249126;23;19912;-81
2022/07/29 09:57:50;;;;;;;;;;;;;;;;;;6249336;23;19961;-81
2022/07/29 10:00:17;;;;;;;;;;;;;;;;;;6222495;23;19912;-82
2022/07/29 10:02:44;;;;;;;;;;;;;;;;;;6223034;23;19920;-82
2022/07/29 10:05:17;;;;;;;;;;;;;;;;;;6250022;23;19912;-83
2022/07/29 10:07:46;;;;;;;;;;;;;;;;;;6223021;23;19915;-83
2022/07/29 10:10:18;;;;;;;;;;;;;;;;;;6250108;23;20247;-84
2022/07/29 10:12:51;;;;;;;;;;;;;;;;;;6222070;23;19981;-83
2022/07/29 10:15:17;;;;;;;;;;;;;;;;;;6250378;23;19912;-83
2022/07/29 10:17:43;;;;;;;;;;;;;;;;;;6249901;23;20297;-85
2022/07/29 10:20:09;;;;;;;;;;;;;;;;;;6251487;23;19962;-84
2022/07/29 10:22:34;;;;;;;;;;;;;;;;;;6253914;23;19926;-83
2022/07/29 10:25:00;;;;;;;;;;;;;;;;;;6248152;23;19912;-84
2022/07/29 10:27:25;;;;;;;;;;;;;;;;;;6248223;23;19915;-85
2022/07/29 10:29:51;;;;;;;;;;;;;;;;;;6251735;23;20263;-89
2022/07/29 10:32:22;;;;;;;;;;;;;;;;;;6252529;23;19918;-85
2022/07/29 10:34:55;;;;;;;;;;;;;;;;;;6254208;23;20232;-84
2022/07/29 10:37:24;;;;;;;;;;;;;;;;;;6222521;23;19946;-84
2022/07/29 10:41:25;;;;;;;;;;;;;;;;;;6251153;23;19915;-84
2022/07/29 10:42:49;;;;;;;;;;;;;;;;;;6251102;23;20388;-84
2022/07/29 10:45:16;;;;;;;;;;;;;;;;;;6252185;23;19958;-85
2022/07/29 10:47:44;;;;;;;;;;;;;;;;;;6252949;23;20278;-83
2022/07/29 10:50:10;;;;;;;;;;;;;;;;;;6250985;23;19918;-83
2022/07/29 10:52:54;;;;;;;;;;;;;;;;;;6254561;23;19911;-83
2022/07/29 10:55:38;;;;;;;;;;;;;;;;;;6253090;23;19935;-84
2022/07/29 10:58:15;;;;;;;;;;;;;;;;;;6252297;23;19915;-82
2022/07/29 11:00:41;;;;;;;;;;;;;;;;;;6252671;23;19922;-83
2022/07/29 11:03:07;;;;;;;;;;;;;;;;;;6228083;23;19940;-85
2022/07/29 11:05:52;;;;;;;;;;;;;;;;;;6254323;23;19918;-85
2022/07/29 11:08:21;;;;;;;;;;;;;;;;;;6252500;23;20042;-87
2022/07/29 11:10:47;;;;;;;;;;;;;;;;;;6257047;23;19973;-88
2022/07/29 11:13:33;;;;;;;;;;;;;;;;;;6259399;23;19912;-86
2022/07/29 11:15:58;;;;;;;;;;;;;;;;;;6231160;23;19911;-85
2022/07/29 11:18:24;;;;;;;;;;;;;;;;;;6259046;23;19899;-84
2022/07/29 11:20:50;;;;;;;;;;;;;;;;;;6233270;23;19935;-85
2022/07/29 11:23:18;;;;;;;;;;;;;;;;;;6258440;23;19923;-85
2022/07/29 11:25:43;;;;;;;;;;;;;;;;;;6256692;23;19911;-84
2022/07/29 11:28:12;;;;;;;;;;;;;;;;;;6251760;23;19918;-86
2022/07/29 11:30:49;;;;;;;;;;;;;;;;;;6254915;23;20220;-84
2022/07/29 11:33:33;;;;;;;;;;;;;;;;;;6231054;23;19962;-84
2022/07/29 11:36:10;;;;;;;;;;;;;;;;;;6257319;23;19912;-84
2022/07/29 11:38:36;;;;;;;;;;;;;;;;;;6228183;23;19994;-84
2022/07/29 11:41:24;;;;;;;;;;;;;;;;;;6255927;23;19915;-84
2022/07/29 11:43:52;;;;;;;;;;;;;;;;;;6256912;23;19918;-84
2022/07/29 11:46:39;;;;;;;;;;;;;;;;;;6260152;23;20389;-82
2022/07/29 11:49:04;;;;;;;;;;;;;;;;;;6259191;23;19918;-84
2022/07/29 11:51:30;;;;;;;;;;;;;;;;;;6233798;23;19911;-85
2022/07/29 11:53:57;;;;;;;;;;;;;;;;;;6254588;23;19957;-86
2022/07/29 11:56:23;;;;;;;;;;;;;;;;;;6256943;23;19934;-84
2022/07/29 11:58:48;;;;;;;;;;;;;;;;;;6261801;23;19934;-87
2022/07/29 12:01:15;;;;;;;;;;;;;;;;;;6265939;23;20184;-88
2022/07/29 12:03:44;;;;;;;;;;;;;;;;;;6242116;23;19969;-89
2022/07/29 12:06:13;;;;;;;;;;;;;;;;;;6268982;23;19934;-85
2022/07/29 12:08:42;;;;;;;;;;;;;;;;;;6257549;23;19991;-84
2022/07/29 12:11:15;;;;;;;;;;;;;;;;;;6250890;23;20232;-89
2022/07/29 12:13:40;;;;;;;;;;;;;;;;;;6252632;23;19990;-85
2022/07/29 12:16:09;;;;;;;;;;;;;;;;;;6253924;23;19912;-84
2022/07/29 12:18:34;;;;;;;;;;;;;;;;;;6257961;23;19923;-85
2022/07/29 12:21:03;;;;;;;;;;;;;;;;;;6257074;23;19912;-83
2022/07/29 12:23:29;;;;;;;;;;;;;;;;;;6252507;23;19907;-82
2022/07/29 12:25:54;;;;;;;;;;;;;;;;;;6231078;23;20320;-83
2022/07/29 12:28:21;;;;;;;;;;;;;;;;;;6252246;23;20229;-83
2022/07/29 12:30:50;;;;;;;;;;;;;;;;;;6250919;23;19934;-84
2022/07/29 12:33:15;;;;;;;;;;;;;;;;;;6250360;23;20320;-83
2022/07/29 12:35:42;;;;;;;;;;;;;;;;;;6224787;23;19922;-83
2022/07/29 12:38:09;;;;;;;;;;;;;;;;;;6253005;23;19943;-83
2022/07/29 12:40:34;;;;;;;;;;;;;;;;;;6252315;23;19969;-84
2022/07/29 12:43:09;;;;;;;;;;;;;;;;;;6254142;23;20239;-83
2022/07/29 12:45:35;;;;;;;;;;;;;;;;;;6250327;23;19911;-83
2022/07/29 12:48:00;;;;;;;;;;;;;;;;;;6251448;23;19918;-83
2022/07/29 12:50:26;;;;;;;;;;;;;;;;;;6226356;23;19915;-84
2022/07/29 12:52:51;;;;;;;;;;;;;;;;;;6257520;23;20331;-83
2022/07/29 12:55:36;;;;;;;;;;;;;;;;;;6253127;23;19911;-86
2022/07/29 12:58:02;;;;;;;;;;;;;;;;;;6252204;23;19926;-84
2022/07/29 13:00:28;;;;;;;;;;;;;;;;;;6253604;23;19916;-84
2022/07/29 13:02:57;;;;;;;;;;;;;;;;;;6252842;23;19974;-85
2022/07/29 13:05:24;;;;;;;;;;;;;;;;;;6226857;23;19919;-84
2022/07/29 13:07:50;;;;;;;;;;;;;;;;;;6252870;23;19914;-84
2022/07/29 13:10:29;;;;;;;;;;;;;;;;;;6266077;23;19912;-86
2022/07/29 13:13:01;;;;;;;;;;;;;;;;;;6230754;23;20019;-85
2022/07/29 13:15:29;;;;;;;;;;;;;;;;;;6250906;23;21223;-84
2022/07/29 13:17:58;;;;;;;;;;;;;;;;;;6261079;23;19912;-85
2022/07/29 13:20:35;;;;;;;;;;;;;;;;;;;;;
2022/07/29 13:23:00;;;;;;;;;;;;;;;;;;6249696;23;20380;-85
2022/07/29 13:25:28;;;;;;;;;;;;;;;;;;6221240;23;19919;-84
2022/07/29 13:27:54;;;;;;;;;;;;;;;;;;6221701;23;19919;-85
2022/07/29 13:30:20;;;;;;;;;;;;;;;;;;6221077;23;19912;-84
2022/07/29 13:32:46;;;;;;;;;;;;;;;;;;6244901;23;19918;-84
2022/07/29 13:35:13;;;;;;;;;;;;;;;;;;6249530;23;20006;-84
2022/07/29 13:37:39;;;;;;;;;;;;;;;;;;6247217;23;20328;-84
2022/07/29 13:40:05;;;;;;;;;;;;;;;;;;6219903;23;19994;-85
2022/07/29 13:42:31;;;;;;;;;;;;;;;;;;6247159;23;19912;-84
2022/07/29 13:44:57;;;;;;;;;;;;;;;;;;6246755;23;20239;-83
2022/07/29 13:47:22;;;;;;;;;;;;;;;;;;6246888;23;19912;-83
2022/07/29 13:49:48;;;;;;;;;;;;;;;;;;6246712;23;19916;-83
2022/07/29 13:52:14;;;;;;;;;;;;;;;;;;6220352;23;19912;-83
2022/07/29 13:54:40;;;;;;;;;;;;;;;;;;6246993;23;20287;-84
2022/07/29 13:57:05;;;;;;;;;;;;;;;;;;6247421;23;19911;-83
2022/07/29 13:59:30;;;;;;;;;;;;;;;;;;6246915;23;19922;-83
2022/07/29 14:01:56;;;;;;;;;;;;;;;;;;6228039;23;19916;-84
2022/07/29 14:04:23;;;;;;;;;;;;;;;;;;6228480;23;19965;-85
2022/07/29 14:06:48;;;;;;;;;;;;;;;;;;6270644;23;19936;-85
2022/07/29 14:09:14;;;;;;;;;;;;;;;;;;6244642;23;19923;-84
2022/07/29 14:11:39;;;;;;;;;;;;;;;;;;6269375;23;19952;-85
2022/07/29 14:14:09;;;;;;;;;;;;;;;;;;6262932;22;19900;-89
2022/07/29 14:16:45;;;;;;;;;;;;;;;;;;6241631;23;19918;-85
2022/07/29 14:19:10;;;;;;;;;;;;;;;;;;6240100;22;19899;-91
2022/07/29 14:21:37;;;;;;;;;;;;;;;;;;6272621;22;20275;-93
2022/07/29 14:24:02;;;;;;;;;;;;;;;;;;6262095;23;19918;-83
2022/07/29 14:26:27;;;;;;;;;;;;;;;;;;6221452;23;20240;-84
2022/07/29 14:28:53;;;;;;;;;;;;;;;;;;6247975;23;19915;-83
2022/07/29 14:31:18;;;;;;;;;;;;;;;;;;6220994;23;19911;-82
2022/07/29 14:33:44;;;;;;;;;;;;;;;;;;6248209;23;19911;-83
2022/07/29 14:36:09;;;;;;;;;;;;;;;;;;6224624;23;19912;-82
2022/07/29 14:38:35;;;;;;;;;;;;;;;;;;6270371;22;19921;-84
2022/07/29 14:41:01;;;;;;;;;;;;;;;;;;6258883;23;19986;-83
2022/07/29 14:43:26;;;;;;;;;;;;;;;;;;6252601;23;19918;-83
2022/07/29 14:45:52;;;;;;;;;;;;;;;;;;6257069;23;19914;-82
2022/07/29 14:48:17;;;;;;;;;;;;;;;;;;6253688;23;19911;-84
2022/07/29 14:50:43;;;;;;;;;;;;;;;;;;6253976;23;19911;-83
2022/07/29 14:53:08;;;;;;;;;;;;;;;;;;6254411;23;19908;-83
2022/07/29 14:55:33;;;;;;;;;;;;;;;;;;6255631;23;19934;-84
2022/07/29 14:57:59;;;;;;;;;;;;;;;;;;6257868;23;19918;-81
2022/07/29 15:00:24;;;;;;;;;;;;;;;;;;6251306;23;19912;-84
2022/07/29 15:02:50;;;;;;;;;;;;;;;;;;6254510;23;20385;-85
2022/07/29 15:05:15;;;;;;;;;;;;;;;;;;6251796;23;19915;-83
2022/07/29 15:07:41;;;;;;;;;;;;;;;;;;6249167;23;19920;-82
2022/07/29 15:10:06;;;;;;;;;;;;;;;;;;6250322;23;19957;-83
2022/07/29 15:12:32;;;;;;;;;;;;;;;;;;6251770;23;19912;-83
2022/07/29 15:14:57;;;;;;;;;;;;;;;;;;6254455;23;19915;-82
2022/07/29 15:17:23;;;;;;;;;;;;;;;;;;6255815;23;20251;-82
2022/07/29 15:19:48;;;;;;;;;;;;;;;;;;6255724;23;20328;-82
2022/07/29 15:22:13;;;;;;;;;;;;;;;;;;6256092;23;19966;-82
2022/07/29 15:24:39;;;;;;;;;;;;;;;;;;6256865;23;19951;-82
2022/07/29 15:27:04;;;;;;;;;;;;;;;;;;6259718;23;19911;-84
2022/07/29 15:29:30;;;;;;;;;;;;;;;;;;6259504;23;19919;-82
2022/07/29 15:31:55;;;;;;;;;;;;;;;;;;6251039;23;19912;-82
2022/07/29 15:34:22;;;;;;;;;;;;;;;;;;6251619;23;19922;-82
2022/07/29 15:36:48;;;;;;;;;;;;;;;;;;6226118;23;19982;-82
2022/07/29 15:39:13;;;;;;;;;;;;;;;;;;6252095;23;19981;-83
2022/07/29 15:41:39;;;;;;;;;;;;;;;;;;6230774;23;19912;-83
2022/07/29 15:44:04;;;;;;;;;;;;;;;;;;6262022;23;19919;-82
2022/07/29 15:49:14;;;;;;;;;;;;;;;;;;6258446;23;19934;-81
2022/07/29 15:51:39;;;;;;;;;;;;;;;;;;6258783;23;19935;-81
2022/07/29 15:54:04;;;;;;;;;;;;;;;;;;6257000;23;19918;-81
2022/07/29 15:56:30;;;;;;;;;;;;;;;;;;6253076;23;19912;-80
2022/07/29 15:58:56;;;;;;;;;;;;;;;;;;6257789;23;20386;-80
2022/07/29 16:01:22;;;;;;;;;;;;;;;;;;6252304;23;19916;-80
2022/07/29 16:03:47;;;;;;;;;;;;;;;;;;6251591;23;19923;-80
2022/07/29 16:06:13;;;;;;;;;;;;;;;;;;6225937;23;19919;-82
2022/07/29 16:08:38;;;;;;;;;;;;;;;;;;6250682;23;19934;-82
2022/07/29 16:11:04;;;;;;;;;;;;;;;;;;6251898;23;20354;-80
2022/07/29 16:13:29;;;;;;;;;;;;;;;;;;6224709;23;19955;-81
2022/07/29 16:26:39;;;;;;;;;;;;;;;;;;5120221;27;19917;-82
2022/07/29 16:29:05;;;;;;;;;;;;;;;;;;5121145;28;19920;-83
2022/07/29 16:31:30;;;;;;;;;;;;;;;;;;5122675;28;19961;-82
2022/07/29 16:33:56;;;;;;;;;;;;;;;;;;5122854;27;19926;-82
2022/07/29 16:36:21;;;;;;;;;;;;;;;;;;5130340;28;20424;-82
2022/07/29 16:38:47;;;;;;;;;;;;;;;;;;5114959;28;19927;-82
2022/07/29 16:41:12;;;;;;;;;;;;;;;;;;5112952;28;19973;-83
2022/07/29 16:43:38;;;;;;;;;;;;;;;;;;5127302;28;19915;-82
2022/07/29 16:46:03;;;;;;;;;;;;;;;;;;5135270;27;19916;-82
2022/07/29 16:48:29;;;;;;;;;;;;;;;;;;5130573;27;19978;-82
2022/07/29 16:50:55;;;;;;;;;;;;;;;;;;5125843;28;19919;-82
2022/07/29 16:53:20;;;;;;;;;;;;;;;;;;5134731;27;20389;-82
2022/07/29 16:55:46;;;;;;;;;;;;;;;;;;5134932;27;19979;-82
2022/07/29 16:58:11;;;;;;;;;;;;;;;;;;5134981;27;20323;-82
2022/07/29 17:00:37;;;;;;;;;;;;;;;;;;5129910;27;19927;-83
2022/07/29 17:03:04;;;;;;;;;;;;;;;;;;5121395;27;19999;-83